createdAt,value
2023-09-28T00:01:42.394Z,4.28
2023-09-28T00:04:26.989Z,3.65
2023-09-28T00:07:10.959Z,4.40
2023-09-28T00:09:53.794Z,4.20
2023-09-28T00:12:37.628Z,3.58
2023-09-28T00:15:22.474Z,3.88
2023-09-28T00:18:06.947Z,4.57
2023-09-28T00:20:52.452Z,4.25
2023-09-28T00:23:36.407Z,3.65
2023-09-28T00:26:20.448Z,4.63
2023-09-28T00:29:06.105Z,4.32
2023-09-28T00:31:50.728Z,3.85
2023-09-28T00:34:33.760Z,3.85
2023-09-28T00:37:19.044Z,4.30
2023-09-28T00:40:09.130Z,4.32
2023-09-28T00:42:53.882Z,4.68
2023-09-28T00:45:38.488Z,4.13
2023-09-28T00:48:23.022Z,4.10
2023-09-28T00:51:06.039Z,3.70
2023-09-28T00:53:52.514Z,3.70
2023-09-28T00:56:37.757Z,4.05
2023-09-28T00:59:22.367Z,3.33
2023-09-28T01:02:06.500Z,2.72
2023-09-28T01:04:49.547Z,3.90
2023-09-28T01:07:34.126Z,3.85
2023-09-28T01:10:21.588Z,4.25
2023-09-28T01:13:09.749Z,4.22
2023-09-28T01:15:52.752Z,4.60
2023-09-28T01:18:37.577Z,4.10
2023-09-28T01:21:20.453Z,4.32
2023-09-28T01:24:06.067Z,3.80
2023-09-28T01:26:50.080Z,4.35
2023-09-28T01:29:33.993Z,4.20
2023-09-28T01:32:17.046Z,3.15
2023-09-28T01:35:00.994Z,4.30
2023-09-28T01:37:55.602Z,4.22
2023-09-28T01:40:41.416Z,3.35
2023-09-28T01:43:24.330Z,3.88
2023-09-28T01:46:08.308Z,4.00
2023-09-28T01:48:51.225Z,3.70
2023-09-28T01:51:35.167Z,3.30
2023-09-28T01:54:18.080Z,3.67
2023-09-28T01:57:03.383Z,3.97
2023-09-28T01:59:46.346Z,3.38
2023-09-28T02:02:30.744Z,3.55
2023-09-28T02:05:18.159Z,3.90
2023-09-28T02:08:02.665Z,3.28
2023-09-28T02:10:47.220Z,3.55
2023-09-28T02:13:32.326Z,3.58
2023-09-28T02:16:16.448Z,3.00
2023-09-28T02:18:59.467Z,3.55
2023-09-28T02:21:43.657Z,3.13
2023-09-28T02:24:27.503Z,3.20
2023-09-28T02:27:10.530Z,2.60
2023-09-28T02:29:55.990Z,2.40
2023-09-28T02:32:39.653Z,3.65
2023-09-28T02:35:25.481Z,3.17
2023-09-28T02:38:08.690Z,5.18
2023-09-28T02:40:53.050Z,3.92
2023-09-28T02:43:37.017Z,3.10
2023-09-28T02:46:21.368Z,4.53
2023-09-28T02:49:07.507Z,4.13
2023-09-28T02:51:51.922Z,4.45
2023-09-28T02:54:35.873Z,4.40
2023-09-28T02:57:19.724Z,3.92
2023-09-28T03:00:13.185Z,3.80
2023-09-28T03:02:58.957Z,3.92
2023-09-28T03:05:42.223Z,4.00
2023-09-28T03:08:26.414Z,4.10
2023-09-28T03:11:09.398Z,3.67
2023-09-28T03:13:53.549Z,3.85
2023-09-28T03:16:37.710Z,4.45
2023-09-28T03:19:22.013Z,3.85
2023-09-28T03:22:06.155Z,3.92
2023-09-28T03:24:49.238Z,3.85
2023-09-28T03:27:33.174Z,3.58
2023-09-28T03:30:17.924Z,4.53
2023-09-28T03:33:01.672Z,3.60
2023-09-28T03:35:47.360Z,4.63
2023-09-28T03:38:31.278Z,3.30
2023-09-28T03:41:15.948Z,4.05
2023-09-28T03:43:59.961Z,3.30
2023-09-28T03:46:44.023Z,4.65
2023-09-28T03:49:27.919Z,4.70
2023-09-28T03:52:13.189Z,3.63
2023-09-28T03:54:57.720Z,4.10
2023-09-28T03:57:43.948Z,4.55
2023-09-28T04:00:28.174Z,3.97
2023-09-28T04:03:12.965Z,3.05
2023-09-28T04:05:56.837Z,2.80
2023-09-28T04:08:42.144Z,3.85
2023-09-28T04:11:26.123Z,3.78
2023-09-28T04:14:10.129Z,3.38
2023-09-28T04:16:54.336Z,3.95
2023-09-28T04:19:38.620Z,3.83
2023-09-28T04:22:22.896Z,4.57
2023-09-28T04:25:09.373Z,3.50
2023-09-28T04:27:53.244Z,2.85
2023-09-28T04:30:38.249Z,3.78
2023-09-28T04:33:22.506Z,4.00
2023-09-28T04:36:09.005Z,3.20
2023-09-28T04:38:52.932Z,2.70
2023-09-28T04:41:38.246Z,2.78
2023-09-28T04:44:22.686Z,3.17
2023-09-28T04:47:06.939Z,3.10
2023-09-28T04:49:51.321Z,2.75
2023-09-28T04:52:35.223Z,2.50
2023-09-28T04:55:19.388Z,2.80
2023-09-28T04:58:04.805Z,2.78
2023-09-28T05:00:48.623Z,2.63
2023-09-28T05:03:33.097Z,2.60
2023-09-28T05:06:17.253Z,2.72
2023-09-28T05:09:01.495Z,3.03
2023-09-28T05:11:45.672Z,1.95
2023-09-28T05:14:31.066Z,2.30
2023-09-28T05:17:15.896Z,2.95
2023-09-28T05:20:00.059Z,2.40
2023-09-28T05:22:45.009Z,4.20
2023-09-28T05:25:30.038Z,2.83
2023-09-28T05:28:15.806Z,3.22
2023-09-28T05:31:01.241Z,2.67
2023-09-28T05:33:45.629Z,2.40
2023-09-28T05:36:29.672Z,2.40
2023-09-28T05:39:13.958Z,2.30
2023-09-28T05:41:58.035Z,2.50
2023-09-28T05:44:42.078Z,2.40
2023-09-28T05:47:27.573Z,2.20
2023-09-28T05:50:12.827Z,2.60
2023-09-28T05:52:57.712Z,2.90
2023-09-28T05:55:41.855Z,2.10
2023-09-28T05:58:25.780Z,1.75
2023-09-28T06:01:11.139Z,2.20
2023-09-28T06:03:56.537Z,1.60
2023-09-28T06:06:40.463Z,2.42
2023-09-28T06:09:24.404Z,2.65
2023-09-28T06:12:08.669Z,2.30
2023-09-28T06:14:52.586Z,2.05
2023-09-28T06:17:36.714Z,1.95
2023-09-28T06:20:22.398Z,2.20
2023-09-28T06:23:06.473Z,2.35
2023-09-28T06:25:50.502Z,2.20
2023-09-28T06:28:34.515Z,2.22
2023-09-28T06:31:20.352Z,2.75
2023-09-28T06:34:04.624Z,3.05
2023-09-28T06:36:52.819Z,1.98
2023-09-28T06:39:39.069Z,2.53
2023-09-28T06:42:36.274Z,3.63
2023-09-28T06:45:21.447Z,3.00
2023-09-28T06:48:18.606Z,4.35
2023-09-28T06:51:04.345Z,3.63
2023-09-28T06:53:50.033Z,3.08
2023-09-28T06:56:36.156Z,3.42
2023-09-28T06:59:20.576Z,2.65
2023-09-28T07:02:05.995Z,2.83
2023-09-28T07:04:50.838Z,3.60
2023-09-28T07:07:34.868Z,3.05
2023-09-28T07:10:20.361Z,2.55
2023-09-28T07:13:06.563Z,3.65
2023-09-28T07:15:51.024Z,3.10
2023-09-28T07:18:35.282Z,2.60
2023-09-28T07:21:19.268Z,2.75
2023-09-28T07:24:16.677Z,2.30
2023-09-28T07:27:04.466Z,2.50
2023-09-28T07:29:50.216Z,3.70
2023-09-28T07:32:34.507Z,3.10
2023-09-28T07:35:19.525Z,2.17
2023-09-28T07:38:03.649Z,2.13
2023-09-28T07:40:48.532Z,2.47
2023-09-28T07:43:34.009Z,2.80
2023-09-28T07:46:17.967Z,3.08
2023-09-28T07:49:02.104Z,2.35
2023-09-28T07:51:45.979Z,3.65
2023-09-28T07:54:29.800Z,3.08
2023-09-28T07:57:13.765Z,3.03
2023-09-28T07:59:59.197Z,2.90
2023-09-28T08:02:43.888Z,3.67
2023-09-28T08:05:28.419Z,2.10
2023-09-28T08:08:16.811Z,3.10
2023-09-28T08:11:02.437Z,2.80
2023-09-28T08:13:46.435Z,2.30
2023-09-28T08:16:31.885Z,3.63
2023-09-28T08:19:15.890Z,2.65
2023-09-28T08:22:00.140Z,2.80
2023-09-28T08:24:44.406Z,2.63
2023-09-28T08:27:28.388Z,2.15
2023-09-28T08:30:13.085Z,2.13
2023-09-28T08:32:58.461Z,2.15
2023-09-28T08:35:42.500Z,2.92
2023-09-28T08:38:27.209Z,2.70
2023-09-28T08:41:12.085Z,3.20
2023-09-28T08:44:05.305Z,2.75
2023-09-28T08:46:51.166Z,2.03
2023-09-28T08:49:38.411Z,2.60
2023-09-28T08:52:24.270Z,1.98
2023-09-28T08:55:11.194Z,2.28
2023-09-28T08:57:56.158Z,2.20
2023-09-28T09:00:41.705Z,2.33
2023-09-28T09:03:26.363Z,3.00
2023-09-28T09:06:13.090Z,3.00
2023-09-28T09:09:02.863Z,3.00
2023-09-28T09:11:52.790Z,2.10
2023-09-28T09:14:37.747Z,3.22
2023-09-28T09:17:21.802Z,2.45
2023-09-28T09:20:10.767Z,2.50
2023-09-28T09:23:01.382Z,3.35
2023-09-28T09:25:48.459Z,2.67
2023-09-28T09:28:34.646Z,2.70
2023-09-28T09:31:18.875Z,2.55
2023-09-28T09:34:05.987Z,2.50
2023-09-28T09:36:57.568Z,2.83
2023-09-28T09:39:43.245Z,2.42
2023-09-28T09:42:28.958Z,2.70
2023-09-28T09:45:14.361Z,2.45
2023-09-28T09:47:59.732Z,3.17
2023-09-28T09:50:45.911Z,3.20
2023-09-28T09:53:32.153Z,2.60
2023-09-28T09:56:18.065Z,2.35
2023-09-28T09:59:07.413Z,2.50
2023-09-28T10:01:53.467Z,2.50
2023-09-28T10:04:38.172Z,2.60
2023-09-28T10:07:34.153Z,2.17
2023-09-28T10:10:30.094Z,2.55
2023-09-28T10:13:16.489Z,2.00
2023-09-28T10:16:04.313Z,2.55
2023-09-28T10:18:50.832Z,2.60
2023-09-28T10:21:39.118Z,2.53
2023-09-28T10:24:41.326Z,3.15
2023-09-28T10:27:25.378Z,2.42
2023-09-28T10:30:20.259Z,2.22
2023-09-28T10:33:12.127Z,3.00
2023-09-28T10:36:13.492Z,2.10
2023-09-28T10:39:12.911Z,1.90
2023-09-28T10:42:06.954Z,1.90
2023-09-28T10:44:52.542Z,1.77
2023-09-28T10:50:40.261Z,2.20
2023-09-28T10:53:24.900Z,2.15
2023-09-28T10:56:09.184Z,2.10
2023-09-28T10:58:59.292Z,1.77
2023-09-28T11:01:44.159Z,2.20
2023-09-28T11:04:43.207Z,1.98
2023-09-28T11:07:27.804Z,2.05
2023-09-28T11:10:13.067Z,2.40
2023-09-28T11:12:57.024Z,1.88
2023-09-28T11:15:42.633Z,2.17
2023-09-28T11:21:31.126Z,1.75
2023-09-28T11:27:17.593Z,2.25
2023-09-28T11:30:03.882Z,1.80
2023-09-28T11:32:53.215Z,2.10
2023-09-28T11:35:39.747Z,2.70
2023-09-28T11:38:23.853Z,2.50
2023-09-28T11:41:08.148Z,2.50
2023-09-28T11:43:55.080Z,2.38
2023-09-28T11:46:39.947Z,2.65
2023-09-28T11:49:25.851Z,2.25
2023-09-28T11:52:11.839Z,1.98
2023-09-28T11:54:55.881Z,2.08
2023-09-28T11:57:39.840Z,2.10
2023-09-28T12:03:27.745Z,1.98
2023-09-28T12:06:14.135Z,2.15
2023-09-28T12:08:58.124Z,2.20
2023-09-28T12:11:43.242Z,2.22
2023-09-28T12:14:27.406Z,2.70
2023-09-28T12:17:11.444Z,2.10
2023-09-28T12:19:55.518Z,2.20
2023-09-28T12:25:43.198Z,2.00
2023-09-28T12:28:27.154Z,1.80
2023-09-28T12:34:15.055Z,2.13
2023-09-28T12:36:59.299Z,2.25
2023-09-28T12:39:44.878Z,2.40
2023-09-28T12:42:29.027Z,2.13
2023-09-28T12:45:13.163Z,2.70
2023-09-28T12:47:57.206Z,2.00
2023-09-28T12:50:41.269Z,2.10
2023-09-28T12:53:27.402Z,1.90
2023-09-28T12:56:14.231Z,2.00
2023-09-28T12:58:58.372Z,2.63
2023-09-28T13:01:42.414Z,1.90
2023-09-28T13:04:26.520Z,2.70
2023-09-28T13:07:10.869Z,2.55
2023-09-28T13:09:54.754Z,2.35
2023-09-28T13:12:40.530Z,2.70
2023-09-28T13:15:24.653Z,2.58
2023-09-28T13:18:11.175Z,2.55
2023-09-28T13:20:55.073Z,2.47
2023-09-28T13:23:39.097Z,2.60
2023-09-28T13:26:25.385Z,2.35
2023-09-28T13:29:10.730Z,3.45
2023-09-28T13:31:55.813Z,2.88
2023-09-28T13:34:39.905Z,2.42
2023-09-28T13:37:24.008Z,3.47
2023-09-28T13:40:17.010Z,2.80
2023-09-28T13:43:01.352Z,2.88
2023-09-28T13:45:48.738Z,2.90
2023-09-28T13:48:33.188Z,2.33
2023-09-28T13:51:17.509Z,2.90
2023-09-28T13:54:01.694Z,2.90
2023-09-28T13:56:45.833Z,2.90
2023-09-28T13:59:30.270Z,2.63
2023-09-28T14:02:16.183Z,2.72
2023-09-28T14:05:02.233Z,3.38
2023-09-28T14:07:47.474Z,3.13
2023-09-28T14:10:31.993Z,3.45
2023-09-28T14:13:16.933Z,3.42
2023-09-28T14:16:02.666Z,2.85
2023-09-28T14:18:48.903Z,2.78
2023-09-28T14:21:33.227Z,2.38
2023-09-28T14:24:17.861Z,2.42
2023-09-28T14:27:01.951Z,2.15
2023-09-28T14:29:46.437Z,2.40
2023-09-28T14:32:31.044Z,2.40
2023-09-28T14:35:18.074Z,2.10
2023-09-28T14:38:02.357Z,1.98
2023-09-28T14:40:46.898Z,2.17
2023-09-28T14:43:31.124Z,2.95
2023-09-28T14:46:15.567Z,2.40
2023-09-28T14:49:00.795Z,2.85
2023-09-28T14:51:46.650Z,2.03
2023-09-28T14:54:30.822Z,2.20
2023-09-28T14:57:14.963Z,2.50
2023-09-28T14:59:59.330Z,2.42
2023-09-28T15:02:44.869Z,2.40
2023-09-28T15:05:29.610Z,2.38
2023-09-28T15:08:15.670Z,1.92
2023-09-28T15:10:59.871Z,2.20
2023-09-28T15:13:44.030Z,1.95
2023-09-28T15:16:28.329Z,2.33
2023-09-28T15:19:12.557Z,2.45
2023-09-28T15:21:56.634Z,2.30
2023-09-28T15:24:42.778Z,1.90
2023-09-28T15:27:27.074Z,10.00
2023-09-28T15:30:12.744Z,3.25
2023-09-28T15:32:56.947Z,1.80
2023-09-28T15:35:41.306Z,2.50
2023-09-28T15:38:25.568Z,2.28
2023-09-28T15:41:35.308Z,2.10
2023-09-28T15:44:19.687Z,2.22
2023-09-28T15:47:04.325Z,3.67
2023-09-28T15:49:49.464Z,3.80
2023-09-28T15:52:34.267Z,3.70
2023-09-28T15:55:18.817Z,4.30
2023-09-28T15:58:04.547Z,3.20
2023-09-28T16:00:50.217Z,3.58
2023-09-28T16:03:34.365Z,3.67
2023-09-28T16:06:19.096Z,3.95
2023-09-28T16:09:04.410Z,3.25
2023-09-28T16:11:48.825Z,3.28
2023-09-28T16:14:35.141Z,2.55
2023-09-28T16:17:19.925Z,3.03
2023-09-28T16:20:04.213Z,2.40
2023-09-28T16:22:48.715Z,2.53
2023-09-28T16:25:34.221Z,3.03
2023-09-28T16:28:19.507Z,2.50
2023-09-28T16:31:06.486Z,2.55
2023-09-28T16:33:50.841Z,2.30
2023-09-28T16:36:35.456Z,2.50
2023-09-28T16:39:19.672Z,3.00
2023-09-28T16:42:03.859Z,3.30
2023-09-28T16:44:47.692Z,3.25
2023-09-28T16:47:33.283Z,3.50
2023-09-28T16:50:17.557Z,2.88
2023-09-28T16:53:02.808Z,2.97
2023-09-28T16:55:46.886Z,3.42
2023-09-28T16:58:30.803Z,2.08
2023-09-28T17:01:15.307Z,2.08
2023-09-28T17:04:01.078Z,2.42
2023-09-28T17:06:45.153Z,2.35
2023-09-28T17:09:29.166Z,2.55
2023-09-28T17:12:13.648Z,2.00
2023-09-28T17:14:57.638Z,2.75
2023-09-28T17:17:41.800Z,2.85
2023-09-28T17:20:27.404Z,2.85
2023-09-28T17:23:11.598Z,2.15
2023-09-28T17:25:57.690Z,2.17
2023-09-28T17:28:42.715Z,2.60
2023-09-28T17:31:27.239Z,2.28
2023-09-28T17:34:11.819Z,2.00
2023-09-28T17:36:57.483Z,2.17
2023-09-28T17:39:41.750Z,2.55
2023-09-28T17:42:26.557Z,1.48
2023-09-28T17:45:11.064Z,1.85
2023-09-28T17:47:55.602Z,2.05
2023-09-28T17:50:39.978Z,2.30
2023-09-28T17:53:25.956Z,2.35
2023-09-28T17:56:10.292Z,2.22
2023-09-28T17:58:55.631Z,2.08
2023-09-28T18:01:43.201Z,2.30
2023-09-28T18:04:27.805Z,2.42
2023-09-28T18:07:14.919Z,1.80
2023-09-28T18:10:00.739Z,2.67
2023-09-28T18:12:45.705Z,2.22
2023-09-28T18:15:30.359Z,2.13
2023-09-28T18:18:14.994Z,2.03
2023-09-28T18:20:59.613Z,2.80
2023-09-28T18:23:47.668Z,3.60
2023-09-28T18:26:34.756Z,2.85
2023-09-28T18:29:19.571Z,2.10
2023-09-28T18:32:04.048Z,2.30
2023-09-28T18:34:50.873Z,1.75
2023-09-28T18:37:35.908Z,2.10
2023-09-28T18:40:23.468Z,2.03
2023-09-28T18:43:09.974Z,1.95
2023-09-28T18:45:55.990Z,1.75
2023-09-28T18:48:40.993Z,1.85
2023-09-28T18:51:26.378Z,1.75
2023-09-28T18:54:11.813Z,3.17
2023-09-28T18:56:56.509Z,2.83
2023-09-28T18:59:43.425Z,2.38
2023-09-28T19:02:28.973Z,2.35
2023-09-28T19:05:15.225Z,2.30
2023-09-28T19:07:59.985Z,2.40
2023-09-28T19:10:45.266Z,2.20
2023-09-28T19:13:32.519Z,2.40
2023-09-28T19:16:18.451Z,2.60
2023-09-28T19:19:02.841Z,2.15
2023-09-28T19:21:50.175Z,2.40
2023-09-28T19:24:36.233Z,1.63
2023-09-28T19:27:35.711Z,2.17
2023-09-28T19:30:23.960Z,2.20
2023-09-28T19:33:10.289Z,2.05
2023-09-28T19:35:55.293Z,2.50
2023-09-28T19:38:40.810Z,2.22
2023-09-28T19:41:29.833Z,1.80
2023-09-28T19:44:14.992Z,2.28
2023-09-28T19:46:59.697Z,1.90
2023-09-28T19:49:45.616Z,1.88
2023-09-28T19:52:33.934Z,2.03
2023-09-28T19:55:18.914Z,1.83
2023-09-28T19:58:03.482Z,1.90
2023-09-28T20:00:47.963Z,1.63
2023-09-28T20:03:32.524Z,1.83
2023-09-28T20:06:21.862Z,1.70
2023-09-28T20:09:07.675Z,1.88
2023-09-28T20:11:52.586Z,1.75
2023-09-28T20:14:36.813Z,1.17
2023-09-28T20:17:21.049Z,1.70
2023-09-28T20:20:06.961Z,1.60
2023-09-28T20:22:57.195Z,1.80
2023-09-28T20:25:42.570Z,1.58
2023-09-28T20:28:27.809Z,2.22
2023-09-28T20:31:12.035Z,2.08
2023-09-28T20:33:56.145Z,2.10
2023-09-28T20:36:40.337Z,2.15
2023-09-28T20:39:25.646Z,1.75
2023-09-28T20:42:10.458Z,2.08
2023-09-28T20:44:54.828Z,2.08
2023-09-28T20:47:39.321Z,1.98
2023-09-28T20:50:23.551Z,1.80
2023-09-28T20:53:07.756Z,1.73
2023-09-28T20:55:53.060Z,2.17
2023-09-28T20:58:36.950Z,2.75
2023-09-28T21:01:20.881Z,2.00
2023-09-28T21:04:05.208Z,1.90
2023-09-28T21:06:49.241Z,1.63
2023-09-28T21:09:33.234Z,2.10
2023-09-28T21:12:18.523Z,2.40
2023-09-28T21:15:02.900Z,2.05
2023-09-28T21:17:49.050Z,1.50
2023-09-28T21:20:33.399Z,1.60
2023-09-28T21:23:17.592Z,1.77
2023-09-28T21:26:01.826Z,1.85
2023-09-28T21:28:47.475Z,1.60
2023-09-28T21:31:31.594Z,1.70
2023-09-28T21:34:15.961Z,1.25
2023-09-28T21:37:00.099Z,2.08
2023-09-28T21:39:44.448Z,1.83
2023-09-28T21:42:28.966Z,1.75
2023-09-28T21:45:14.970Z,1.52
2023-09-28T21:47:59.218Z,1.45
2023-09-28T21:50:43.705Z,1.67
2023-09-28T21:53:28.049Z,2.05
2023-09-28T21:56:12.215Z,1.73
2023-09-28T21:58:56.430Z,1.83
2023-09-28T22:01:42.569Z,1.52
2023-09-28T22:04:26.521Z,1.70
2023-09-28T22:07:10.422Z,1.50
2023-09-28T22:09:55.010Z,1.83
2023-09-28T22:12:38.976Z,1.92
2023-09-28T22:15:23.421Z,1.95
2023-09-28T22:18:10.769Z,1.83
2023-09-28T22:20:54.901Z,1.80
2023-09-28T22:23:38.835Z,1.50
2023-09-28T22:26:22.929Z,1.73
2023-09-28T22:29:07.089Z,1.70
2023-09-28T22:31:51.061Z,1.70
2023-09-28T22:34:36.671Z,1.50
2023-09-28T22:37:20.605Z,1.92
2023-09-28T22:40:24.011Z,1.90
2023-09-28T22:43:10.626Z,1.90
2023-09-28T22:45:54.570Z,1.92
2023-09-28T22:48:38.736Z,1.88
2023-09-28T22:51:23.992Z,1.60
2023-09-28T22:54:09.006Z,1.67
2023-09-28T22:56:53.098Z,1.98
2023-09-28T22:59:37.852Z,1.95
2023-09-28T23:02:21.896Z,2.33
2023-09-28T23:05:06.625Z,2.15
2023-09-28T23:07:52.120Z,1.85
2023-09-28T23:10:36.360Z,1.90
2023-09-28T23:13:20.245Z,1.88
2023-09-28T23:16:06.702Z,2.33
2023-09-28T23:18:51.835Z,2.40
2023-09-28T23:21:36.581Z,2.60
2023-09-28T23:24:23.379Z,2.28
2023-09-28T23:27:07.495Z,2.20
2023-09-28T23:29:52.468Z,2.22
2023-09-28T23:32:38.143Z,2.80
2023-09-28T23:35:25.482Z,2.58
2023-09-28T23:38:11.754Z,2.92
2023-09-28T23:40:57.841Z,2.50
2023-09-28T23:43:42.135Z,2.47
2023-09-28T23:46:26.323Z,2.85
2023-09-28T23:49:11.292Z,3.77
2023-09-28T23:51:55.629Z,2.30
2023-09-28T23:54:40.012Z,2.25
2023-09-28T23:57:26.197Z,2.13
